sensor_id;sensor_type;location;lat;lon;timestamp;P1;durP1;ratioP1;P2;durP2;ratioP2
2289;SDS011;1153;47.986;7.898;2023-05-15T00:02:10;2.30;;;1.63;;
2289;SDS011;1153;47.986;7.898;2023-05-15T00:04:36;1.17;;;0.97;;
2289;SDS011;1153;47.986;7.898;2023-05-15T00:07:01;1.97;;;1.07;;
2289;SDS011;1153;47.986;7.898;2023-05-15T00:09:26;1.10;;;0.80;;
2289;SDS011;1153;47.986;7.898;2023-05-15T00:11:51;1.67;;;0.93;;
2289;SDS011;1153;47.986;7.898;2023-05-15T00:14:17;1.57;;;0.70;;
2289;SDS011;1153;47.986;7.898;2023-05-15T00:16:42;1.60;;;0.80;;
2289;SDS011;1153;47.986;7.898;2023-05-15T00:19:07;1.37;;;1.20;;
2289;SDS011;1153;47.986;7.898;2023-05-15T00:21:32;1.40;;;0.90;;
2289;SDS011;1153;47.986;7.898;2023-05-15T00:23:57;0.97;;;0.70;;
2289;SDS011;1153;47.986;7.898;2023-05-15T00:26:23;1.50;;;0.90;;
2289;SDS011;1153;47.986;7.898;2023-05-15T00:28:48;1.93;;;0.93;;
2289;SDS011;1153;47.986;7.898;2023-05-15T00:31:13;1.87;;;1.20;;
2289;SDS011;1153;47.986;7.898;2023-05-15T00:33:39;1.10;;;0.70;;
2289;SDS011;1153;47.986;7.898;2023-05-15T00:36:04;1.00;;;0.87;;
2289;SDS011;1153;47.986;7.898;2023-05-15T00:38:30;1.20;;;1.10;;
2289;SDS011;1153;47.986;7.898;2023-05-15T00:40:57;2.17;;;0.60;;
2289;SDS011;1153;47.986;7.898;2023-05-15T00:43:22;1.30;;;1.20;;
2289;SDS011;1153;47.986;7.898;2023-05-15T00:45:49;4.20;;;0.80;;
2289;SDS011;1153;47.986;7.898;2023-05-15T00:48:15;1.30;;;0.73;;
2289;SDS011;1153;47.986;7.898;2023-05-15T00:50:40;1.10;;;1.00;;
2289;SDS011;1153;47.986;7.898;2023-05-15T00:53:07;5.07;;;0.77;;
2289;SDS011;1153;47.986;7.898;2023-05-15T00:55:32;1.00;;;0.80;;
2289;SDS011;1153;47.986;7.898;2023-05-15T00:57:57;2.37;;;0.77;;
2289;SDS011;1153;47.986;7.898;2023-05-15T01:00:24;1.03;;;0.93;;
2289;SDS011;1153;47.986;7.898;2023-05-15T01:02:50;0.90;;;0.70;;
2289;SDS011;1153;47.986;7.898;2023-05-15T01:05:15;1.43;;;1.33;;
2289;SDS011;1153;47.986;7.898;2023-05-15T01:07:44;3.13;;;0.70;;
2289;SDS011;1153;47.986;7.898;2023-05-15T01:10:10;1.10;;;1.00;;
2289;SDS011;1153;47.986;7.898;2023-05-15T01:12:36;2.13;;;1.00;;
2289;SDS011;1153;47.986;7.898;2023-05-15T01:15:02;1.07;;;0.97;;
2289;SDS011;1153;47.986;7.898;2023-05-15T01:17:27;1.07;;;0.70;;
2289;SDS011;1153;47.986;7.898;2023-05-15T01:19:52;3.50;;;1.13;;
2289;SDS011;1153;47.986;7.898;2023-05-15T01:35:07;1.13;;;0.80;;
2289;SDS011;1153;47.986;7.898;2023-05-15T01:37:34;0.90;;;0.70;;
2289;SDS011;1153;47.986;7.898;2023-05-15T01:40:01;3.23;;;0.87;;
2289;SDS011;1153;47.986;7.898;2023-05-15T01:42:29;2.23;;;1.20;;
2289;SDS011;1153;47.986;7.898;2023-05-15T01:44:54;1.20;;;0.83;;
2289;SDS011;1153;47.986;7.898;2023-05-15T01:47:22;1.40;;;1.30;;
2289;SDS011;1153;47.986;7.898;2023-05-15T01:49:51;1.17;;;1.07;;
2289;SDS011;1153;47.986;7.898;2023-05-15T01:52:19;1.10;;;1.00;;
2289;SDS011;1153;47.986;7.898;2023-05-15T01:54:46;1.13;;;1.03;;
2289;SDS011;1153;47.986;7.898;2023-05-15T01:57:12;1.60;;;1.10;;
2289;SDS011;1153;47.986;7.898;2023-05-15T01:59:38;1.10;;;0.83;;
2289;SDS011;1153;47.986;7.898;2023-05-15T02:02:04;2.50;;;1.00;;
2289;SDS011;1153;47.986;7.898;2023-05-15T02:04:30;1.13;;;0.73;;
2289;SDS011;1153;47.986;7.898;2023-05-15T02:06:56;0.90;;;0.80;;
2289;SDS011;1153;47.986;7.898;2023-05-15T02:09:21;2.67;;;1.03;;
2289;SDS011;1153;47.986;7.898;2023-05-15T02:11:47;1.00;;;0.77;;
2289;SDS011;1153;47.986;7.898;2023-05-15T02:14:13;0.90;;;0.70;;
2289;SDS011;1153;47.986;7.898;2023-05-15T02:16:40;1.10;;;0.83;;
2289;SDS011;1153;47.986;7.898;2023-05-15T02:19:05;1.30;;;0.93;;
2289;SDS011;1153;47.986;7.898;2023-05-15T02:21:30;1.20;;;0.90;;
2289;SDS011;1153;47.986;7.898;2023-05-15T02:23:55;1.07;;;0.70;;
2289;SDS011;1153;47.986;7.898;2023-05-15T02:31:37;1.33;;;0.53;;
2289;SDS011;1153;47.986;7.898;2023-05-15T02:34:11;5.23;;;0.87;;
2289;SDS011;1153;47.986;7.898;2023-05-15T02:36:37;1.30;;;1.10;;
2289;SDS011;1153;47.986;7.898;2023-05-15T02:39:04;1.30;;;1.10;;
2289;SDS011;1153;47.986;7.898;2023-05-15T02:41:29;1.87;;;1.20;;
2289;SDS011;1153;47.986;7.898;2023-05-15T02:43:55;1.10;;;0.90;;
2289;SDS011;1153;47.986;7.898;2023-05-15T02:46:21;1.23;;;1.10;;
2289;SDS011;1153;47.986;7.898;2023-05-15T02:48:48;2.70;;;0.83;;
2289;SDS011;1153;47.986;7.898;2023-05-15T02:51:14;1.10;;;0.93;;
2289;SDS011;1153;47.986;7.898;2023-05-15T02:53:40;1.43;;;1.33;;
2289;SDS011;1153;47.986;7.898;2023-05-15T02:56:06;1.10;;;1.00;;
2289;SDS011;1153;47.986;7.898;2023-05-15T02:58:31;1.50;;;1.00;;
2289;SDS011;1153;47.986;7.898;2023-05-15T03:00:56;2.27;;;1.10;;
2289;SDS011;1153;47.986;7.898;2023-05-15T03:03:22;1.10;;;1.00;;
2289;SDS011;1153;47.986;7.898;2023-05-15T03:05:47;2.77;;;0.90;;
2289;SDS011;1153;47.986;7.898;2023-05-15T03:08:12;1.27;;;1.17;;
2289;SDS011;1153;47.986;7.898;2023-05-15T03:10:37;1.30;;;0.90;;
2289;SDS011;1153;47.986;7.898;2023-05-15T03:13:02;1.13;;;0.90;;
2289;SDS011;1153;47.986;7.898;2023-05-15T03:15:27;1.13;;;1.03;;
2289;SDS011;1153;47.986;7.898;2023-05-15T03:17:53;1.20;;;0.97;;
2289;SDS011;1153;47.986;7.898;2023-05-15T03:20:18;1.60;;;1.20;;
2289;SDS011;1153;47.986;7.898;2023-05-15T03:22:43;1.00;;;0.90;;
2289;SDS011;1153;47.986;7.898;2023-05-15T03:25:11;1.43;;;0.73;;
2289;SDS011;1153;47.986;7.898;2023-05-15T03:27:37;1.10;;;1.00;;
2289;SDS011;1153;47.986;7.898;2023-05-15T03:30:02;2.20;;;1.43;;
2289;SDS011;1153;47.986;7.898;2023-05-15T03:32:28;1.00;;;0.90;;
2289;SDS011;1153;47.986;7.898;2023-05-15T03:34:53;0.90;;;0.80;;
2289;SDS011;1153;47.986;7.898;2023-05-15T03:37:18;1.50;;;1.20;;
2289;SDS011;1153;47.986;7.898;2023-05-15T03:39:43;0.90;;;0.80;;
2289;SDS011;1153;47.986;7.898;2023-05-15T03:42:08;1.30;;;1.20;;
2289;SDS011;1153;47.986;7.898;2023-05-15T03:44:34;4.03;;;0.60;;
2289;SDS011;1153;47.986;7.898;2023-05-15T03:46:59;0.80;;;0.60;;
2289;SDS011;1153;47.986;7.898;2023-05-15T03:49:24;1.97;;;0.87;;
2289;SDS011;1153;47.986;7.898;2023-05-15T03:51:49;0.83;;;0.67;;
2289;SDS011;1153;47.986;7.898;2023-05-15T03:54:14;1.10;;;1.00;;
2289;SDS011;1153;47.986;7.898;2023-05-15T03:56:40;1.20;;;0.90;;
2289;SDS011;1153;47.986;7.898;2023-05-15T03:59:05;1.03;;;0.87;;
2289;SDS011;1153;47.986;7.898;2023-05-15T04:01:30;2.93;;;1.43;;
2289;SDS011;1153;47.986;7.898;2023-05-15T04:03:55;1.30;;;1.10;;
2289;SDS011;1153;47.986;7.898;2023-05-15T04:06:20;1.10;;;0.80;;
2289;SDS011;1153;47.986;7.898;2023-05-15T04:08:46;2.03;;;1.50;;
2289;SDS011;1153;47.986;7.898;2023-05-15T04:11:12;1.00;;;0.77;;
2289;SDS011;1153;47.986;7.898;2023-05-15T04:13:37;1.60;;;1.20;;
2289;SDS011;1153;47.986;7.898;2023-05-15T04:16:02;2.43;;;0.60;;
2289;SDS011;1153;47.986;7.898;2023-05-15T04:18:28;0.83;;;0.70;;
2289;SDS011;1153;47.986;7.898;2023-05-15T04:20:53;5.27;;;0.93;;
2289;SDS011;1153;47.986;7.898;2023-05-15T04:23:18;4.20;;;0.80;;
2289;SDS011;1153;47.986;7.898;2023-05-15T04:25:43;1.10;;;1.00;;
2289;SDS011;1153;47.986;7.898;2023-05-15T04:28:11;0.90;;;0.80;;
2289;SDS011;1153;47.986;7.898;2023-05-15T04:30:36;4.20;;;1.07;;
2289;SDS011;1153;47.986;7.898;2023-05-15T04:33:01;1.50;;;0.90;;
2289;SDS011;1153;47.986;7.898;2023-05-15T04:35:26;1.00;;;0.90;;
2289;SDS011;1153;47.986;7.898;2023-05-15T04:37:52;3.70;;;0.90;;
2289;SDS011;1153;47.986;7.898;2023-05-15T04:40:17;1.17;;;0.80;;
2289;SDS011;1153;47.986;7.898;2023-05-15T04:42:42;1.33;;;1.03;;
2289;SDS011;1153;47.986;7.898;2023-05-15T04:45:07;0.90;;;0.60;;
2289;SDS011;1153;47.986;7.898;2023-05-15T04:47:33;1.80;;;0.90;;
2289;SDS011;1153;47.986;7.898;2023-05-15T04:49:58;9.57;;;8.70;;
2289;SDS011;1153;47.986;7.898;2023-05-15T04:52:23;5.93;;;5.53;;
2289;SDS011;1153;47.986;7.898;2023-05-15T04:54:49;6.33;;;5.83;;
2289;SDS011;1153;47.986;7.898;2023-05-15T04:57:15;6.73;;;6.20;;
2289;SDS011;1153;47.986;7.898;2023-05-15T04:59:41;3.03;;;1.67;;
2289;SDS011;1153;47.986;7.898;2023-05-15T05:02:07;1.60;;;1.23;;
2289;SDS011;1153;47.986;7.898;2023-05-15T05:04:33;2.50;;;1.30;;
2289;SDS011;1153;47.986;7.898;2023-05-15T05:06:58;1.87;;;1.77;;
2289;SDS011;1153;47.986;7.898;2023-05-15T05:09:23;1.23;;;1.10;;
2289;SDS011;1153;47.986;7.898;2023-05-15T05:11:48;1.30;;;1.17;;
2289;SDS011;1153;47.986;7.898;2023-05-15T05:14:13;1.30;;;1.13;;
2289;SDS011;1153;47.986;7.898;2023-05-15T05:16:39;1.53;;;1.43;;
2289;SDS011;1153;47.986;7.898;2023-05-15T05:19:05;5.57;;;1.73;;
2289;SDS011;1153;47.986;7.898;2023-05-15T05:21:30;1.40;;;1.30;;
2289;SDS011;1153;47.986;7.898;2023-05-15T05:23:56;1.30;;;1.10;;
2289;SDS011;1153;47.986;7.898;2023-05-15T05:26:22;2.10;;;1.40;;
2289;SDS011;1153;47.986;7.898;2023-05-15T05:28:47;2.40;;;2.30;;
2289;SDS011;1153;47.986;7.898;2023-05-15T05:31:12;2.53;;;1.20;;
2289;SDS011;1153;47.986;7.898;2023-05-15T05:33:38;2.03;;;1.20;;
2289;SDS011;1153;47.986;7.898;2023-05-15T05:36:03;1.67;;;1.30;;
2289;SDS011;1153;47.986;7.898;2023-05-15T05:38:29;1.33;;;1.23;;
2289;SDS011;1153;47.986;7.898;2023-05-15T05:40:54;1.43;;;1.30;;
2289;SDS011;1153;47.986;7.898;2023-05-15T05:43:19;1.10;;;0.97;;
2289;SDS011;1153;47.986;7.898;2023-05-15T05:45:45;3.27;;;1.90;;
2289;SDS011;1153;47.986;7.898;2023-05-15T05:48:10;3.43;;;3.10;;
2289;SDS011;1153;47.986;7.898;2023-05-15T05:50:37;1.70;;;1.60;;
2289;SDS011;1153;47.986;7.898;2023-05-15T05:53:02;2.00;;;1.57;;
2289;SDS011;1153;47.986;7.898;2023-05-15T05:55:27;1.43;;;1.33;;
2289;SDS011;1153;47.986;7.898;2023-05-15T05:57:52;1.70;;;1.60;;
2289;SDS011;1153;47.986;7.898;2023-05-15T06:00:18;1.87;;;1.77;;
2289;SDS011;1153;47.986;7.898;2023-05-15T06:02:43;2.13;;;2.03;;
2289;SDS011;1153;47.986;7.898;2023-05-15T06:05:08;3.30;;;1.90;;
2289;SDS011;1153;47.986;7.898;2023-05-15T06:07:34;1.50;;;1.40;;
2289;SDS011;1153;47.986;7.898;2023-05-15T06:09:59;1.30;;;1.20;;
2289;SDS011;1153;47.986;7.898;2023-05-15T06:12:25;2.90;;;2.27;;
2289;SDS011;1153;47.986;7.898;2023-05-15T06:14:51;2.47;;;2.30;;
2289;SDS011;1153;47.986;7.898;2023-05-15T06:17:17;2.80;;;2.70;;
2289;SDS011;1153;47.986;7.898;2023-05-15T06:19:42;2.17;;;1.80;;
2289;SDS011;1153;47.986;7.898;2023-05-15T06:22:07;1.77;;;1.67;;
2289;SDS011;1153;47.986;7.898;2023-05-15T06:24:32;2.00;;;1.90;;
2289;SDS011;1153;47.986;7.898;2023-05-15T06:26:57;1.60;;;1.23;;
2289;SDS011;1153;47.986;7.898;2023-05-15T06:29:23;1.50;;;1.40;;
2289;SDS011;1153;47.986;7.898;2023-05-15T06:31:48;1.20;;;1.00;;
2289;SDS011;1153;47.986;7.898;2023-05-15T06:34:13;1.80;;;1.70;;
2289;SDS011;1153;47.986;7.898;2023-05-15T06:36:38;1.03;;;0.93;;
2289;SDS011;1153;47.986;7.898;2023-05-15T06:39:03;1.90;;;1.80;;
2289;SDS011;1153;47.986;7.898;2023-05-15T06:41:29;2.10;;;1.90;;
2289;SDS011;1153;47.986;7.898;2023-05-15T06:43:54;1.60;;;1.50;;
2289;SDS011;1153;47.986;7.898;2023-05-15T06:46:20;1.87;;;1.77;;
2289;SDS011;1153;47.986;7.898;2023-05-15T06:48:48;4.57;;;1.47;;
2289;SDS011;1153;47.986;7.898;2023-05-15T06:51:13;1.20;;;1.10;;
2289;SDS011;1153;47.986;7.898;2023-05-15T06:53:39;1.77;;;1.47;;
2289;SDS011;1153;47.986;7.898;2023-05-15T06:56:05;2.90;;;1.77;;
2289;SDS011;1153;47.986;7.898;2023-05-15T06:58:30;1.20;;;1.10;;
2289;SDS011;1153;47.986;7.898;2023-05-15T07:00:55;1.20;;;1.10;;
2289;SDS011;1153;47.986;7.898;2023-05-15T07:03:20;1.67;;;1.57;;
2289;SDS011;1153;47.986;7.898;2023-05-15T07:05:45;1.50;;;1.30;;
2289;SDS011;1153;47.986;7.898;2023-05-15T07:08:10;1.50;;;1.30;;
2289;SDS011;1153;47.986;7.898;2023-05-15T07:10:36;1.40;;;1.00;;
2289;SDS011;1153;47.986;7.898;2023-05-15T07:13:01;1.10;;;1.00;;
2289;SDS011;1153;47.986;7.898;2023-05-15T07:15:26;1.70;;;1.40;;
2289;SDS011;1153;47.986;7.898;2023-05-15T07:17:51;1.80;;;1.50;;
2289;SDS011;1153;47.986;7.898;2023-05-15T07:20:16;1.30;;;1.20;;
2289;SDS011;1153;47.986;7.898;2023-05-15T07:22:42;2.93;;;1.07;;
2289;SDS011;1153;47.986;7.898;2023-05-15T07:25:07;1.17;;;1.07;;
2289;SDS011;1153;47.986;7.898;2023-05-15T07:27:32;2.20;;;1.43;;
2289;SDS011;1153;47.986;7.898;2023-05-15T07:29:57;1.20;;;1.10;;
2289;SDS011;1153;47.986;7.898;2023-05-15T07:32:23;3.20;;;0.80;;
2289;SDS011;1153;47.986;7.898;2023-05-15T07:34:48;4.03;;;1.00;;
2289;SDS011;1153;47.986;7.898;2023-05-15T07:37:13;2.20;;;2.03;;
2289;SDS011;1153;47.986;7.898;2023-05-15T07:39:38;1.13;;;1.00;;
2289;SDS011;1153;47.986;7.898;2023-05-15T07:42:03;0.80;;;0.77;;
2289;SDS011;1153;47.986;7.898;2023-05-15T07:44:29;1.20;;;1.10;;
2289;SDS011;1153;47.986;7.898;2023-05-15T07:46:54;1.13;;;1.03;;
2289;SDS011;1153;47.986;7.898;2023-05-15T07:49:20;3.03;;;0.77;;
2289;SDS011;1153;47.986;7.898;2023-05-15T07:51:45;1.00;;;0.83;;
2289;SDS011;1153;47.986;7.898;2023-05-15T07:54:10;1.63;;;0.90;;
2289;SDS011;1153;47.986;7.898;2023-05-15T07:56:35;1.30;;;1.20;;
2289;SDS011;1153;47.986;7.898;2023-05-15T07:59:01;1.43;;;1.30;;
2289;SDS011;1153;47.986;7.898;2023-05-15T08:01:27;1.93;;;1.83;;
2289;SDS011;1153;47.986;7.898;2023-05-15T08:03:52;1.43;;;1.33;;
2289;SDS011;1153;47.986;7.898;2023-05-15T08:06:17;1.70;;;1.37;;
2289;SDS011;1153;47.986;7.898;2023-05-15T08:08:42;2.20;;;1.73;;
2289;SDS011;1153;47.986;7.898;2023-05-15T08:11:07;2.40;;;1.33;;
2289;SDS011;1153;47.986;7.898;2023-05-15T08:13:33;1.43;;;1.33;;
2289;SDS011;1153;47.986;7.898;2023-05-15T08:15:58;1.50;;;1.40;;
2289;SDS011;1153;47.986;7.898;2023-05-15T08:18:23;1.93;;;1.83;;
2289;SDS011;1153;47.986;7.898;2023-05-15T08:20:48;2.10;;;1.50;;
2289;SDS011;1153;47.986;7.898;2023-05-15T08:23:13;2.60;;;1.90;;
2289;SDS011;1153;47.986;7.898;2023-05-15T08:25:39;1.83;;;1.73;;
2289;SDS011;1153;47.986;7.898;2023-05-15T08:28:04;1.80;;;1.70;;
2289;SDS011;1153;47.986;7.898;2023-05-15T08:30:29;1.67;;;1.57;;
2289;SDS011;1153;47.986;7.898;2023-05-15T08:32:55;1.63;;;1.53;;
2289;SDS011;1153;47.986;7.898;2023-05-15T08:35:20;1.43;;;1.33;;
2289;SDS011;1153;47.986;7.898;2023-05-15T08:37:45;2.43;;;1.70;;
2289;SDS011;1153;47.986;7.898;2023-05-15T08:40:10;3.43;;;2.20;;
2289;SDS011;1153;47.986;7.898;2023-05-15T08:42:52;1.67;;;1.57;;
2289;SDS011;1153;47.986;7.898;2023-05-15T08:45:18;2.07;;;1.97;;
2289;SDS011;1153;47.986;7.898;2023-05-15T08:47:44;20.27;;;2.33;;
2289;SDS011;1153;47.986;7.898;2023-05-15T08:52:41;2.67;;;2.47;;
2289;SDS011;1153;47.986;7.898;2023-05-15T08:55:07;3.17;;;2.97;;
2289;SDS011;1153;47.986;7.898;2023-05-15T08:57:33;2.97;;;2.87;;
2289;SDS011;1153;47.986;7.898;2023-05-15T08:59:59;3.77;;;2.20;;
2289;SDS011;1153;47.986;7.898;2023-05-15T09:02:24;2.60;;;2.50;;
2289;SDS011;1153;47.986;7.898;2023-05-15T09:04:50;4.20;;;3.90;;
2289;SDS011;1153;47.986;7.898;2023-05-15T09:07:15;3.67;;;3.43;;
2289;SDS011;1153;47.986;7.898;2023-05-15T09:09:41;3.60;;;3.40;;
2289;SDS011;1153;47.986;7.898;2023-05-15T09:12:08;4.03;;;3.67;;
2289;SDS011;1153;47.986;7.898;2023-05-15T09:14:35;3.47;;;3.27;;
2289;SDS011;1153;47.986;7.898;2023-05-15T09:17:00;3.60;;;3.50;;
2289;SDS011;1153;47.986;7.898;2023-05-15T09:19:25;3.80;;;3.60;;
2289;SDS011;1153;47.986;7.898;2023-05-15T09:21:51;3.30;;;3.20;;
2289;SDS011;1153;47.986;7.898;2023-05-15T09:24:23;4.70;;;4.30;;
2289;SDS011;1153;47.986;7.898;2023-05-15T09:29:26;3.73;;;3.53;;
2289;SDS011;1153;47.986;7.898;2023-05-15T09:31:53;2.63;;;2.53;;
2289;SDS011;1153;47.986;7.898;2023-05-15T09:34:18;3.53;;;3.43;;
2289;SDS011;1153;47.986;7.898;2023-05-15T09:36:52;3.40;;;3.13;;
2289;SDS011;1153;47.986;7.898;2023-05-15T09:39:21;8.10;;;3.43;;
2289;SDS011;1153;47.986;7.898;2023-05-15T09:41:46;7.63;;;3.07;;
2289;SDS011;1153;47.986;7.898;2023-05-15T09:44:18;4.00;;;3.70;;
2289;SDS011;1153;47.986;7.898;2023-05-15T09:46:44;3.63;;;3.43;;
2289;SDS011;1153;47.986;7.898;2023-05-15T09:49:10;4.13;;;3.93;;
2289;SDS011;1153;47.986;7.898;2023-05-15T09:51:36;3.70;;;3.50;;
2289;SDS011;1153;47.986;7.898;2023-05-15T09:54:01;3.33;;;3.03;;
2289;SDS011;1153;47.986;7.898;2023-05-15T09:56:26;3.40;;;3.20;;
2289;SDS011;1153;47.986;7.898;2023-05-15T09:58:57;3.80;;;3.60;;
2289;SDS011;1153;47.986;7.898;2023-05-15T10:01:22;3.17;;;3.07;;
2289;SDS011;1153;47.986;7.898;2023-05-15T10:04:01;3.67;;;3.47;;
2289;SDS011;1153;47.986;7.898;2023-05-15T10:06:33;3.20;;;2.40;;
2289;SDS011;1153;47.986;7.898;2023-05-15T10:09:00;4.27;;;3.97;;
2289;SDS011;1153;47.986;7.898;2023-05-15T10:11:25;7.70;;;3.00;;
2289;SDS011;1153;47.986;7.898;2023-05-15T10:13:51;4.00;;;3.00;;
2289;SDS011;1153;47.986;7.898;2023-05-15T10:16:16;3.60;;;3.40;;
2289;SDS011;1153;47.986;7.898;2023-05-15T10:18:44;3.23;;;3.03;;
2289;SDS011;1153;47.986;7.898;2023-05-15T10:21:10;3.73;;;3.47;;
2289;SDS011;1153;47.986;7.898;2023-05-15T10:23:36;3.53;;;3.23;;
2289;SDS011;1153;47.986;7.898;2023-05-15T10:26:07;3.00;;;2.57;;
2289;SDS011;1153;47.986;7.898;2023-05-15T10:28:35;3.13;;;2.70;;
2289;SDS011;1153;47.986;7.898;2023-05-15T10:31:01;3.00;;;2.80;;
2289;SDS011;1153;47.986;7.898;2023-05-15T10:33:27;2.43;;;2.33;;
2289;SDS011;1153;47.986;7.898;2023-05-15T10:35:53;2.90;;;2.80;;
2289;SDS011;1153;47.986;7.898;2023-05-15T10:38:19;2.03;;;1.93;;
2289;SDS011;1153;47.986;7.898;2023-05-15T10:40:45;8.10;;;1.70;;
2289;SDS011;1153;47.986;7.898;2023-05-15T10:43:10;2.63;;;2.53;;
2289;SDS011;1153;47.986;7.898;2023-05-15T10:45:37;2.53;;;1.97;;
2289;SDS011;1153;47.986;7.898;2023-05-15T10:48:03;2.20;;;2.10;;
2289;SDS011;1153;47.986;7.898;2023-05-15T10:50:29;1.73;;;1.63;;
2289;SDS011;1153;47.986;7.898;2023-05-15T10:52:55;2.13;;;1.87;;
2289;SDS011;1153;47.986;7.898;2023-05-15T10:55:21;2.20;;;2.10;;
2289;SDS011;1153;47.986;7.898;2023-05-15T10:57:46;1.50;;;1.40;;
2289;SDS011;1153;47.986;7.898;2023-05-15T11:02:46;3.40;;;1.80;;
2289;SDS011;1153;47.986;7.898;2023-05-15T11:05:12;2.13;;;1.60;;
2289;SDS011;1153;47.986;7.898;2023-05-15T11:07:38;1.73;;;1.63;;
2289;SDS011;1153;47.986;7.898;2023-05-15T11:10:35;1.37;;;1.27;;
2289;SDS011;1153;47.986;7.898;2023-05-15T11:12:58;1.40;;;1.30;;
2289;SDS011;1153;47.986;7.898;2023-05-15T11:15:23;1.90;;;1.80;;
2289;SDS011;1153;47.986;7.898;2023-05-15T11:18:02;1.60;;;1.50;;
2289;SDS011;1153;47.986;7.898;2023-05-15T11:23:02;1.67;;;1.57;;
2289;SDS011;1153;47.986;7.898;2023-05-15T11:25:28;1.57;;;1.47;;
2289;SDS011;1153;47.986;7.898;2023-05-15T11:27:54;4.50;;;1.27;;
2289;SDS011;1153;47.986;7.898;2023-05-15T11:30:20;1.73;;;1.63;;
2289;SDS011;1153;47.986;7.898;2023-05-15T11:35:30;1.60;;;1.50;;
2289;SDS011;1153;47.986;7.898;2023-05-15T11:37:57;1.47;;;1.37;;
2289;SDS011;1153;47.986;7.898;2023-05-15T11:40:26;1.93;;;1.30;;
2289;SDS011;1153;47.986;7.898;2023-05-15T11:42:57;1.67;;;1.57;;
2289;SDS011;1153;47.986;7.898;2023-05-15T11:45:22;1.57;;;1.47;;
2289;SDS011;1153;47.986;7.898;2023-05-15T11:47:48;2.00;;;1.37;;
2289;SDS011;1153;47.986;7.898;2023-05-15T11:50:14;2.10;;;2.00;;
2289;SDS011;1153;47.986;7.898;2023-05-15T11:52:39;2.50;;;2.40;;
2289;SDS011;1153;47.986;7.898;2023-05-15T11:55:05;2.23;;;1.67;;
2289;SDS011;1153;47.986;7.898;2023-05-15T11:57:30;1.60;;;1.50;;
2289;SDS011;1153;47.986;7.898;2023-05-15T11:59:55;2.17;;;2.07;;
2289;SDS011;1153;47.986;7.898;2023-05-15T12:02:21;2.30;;;1.73;;
2289;SDS011;1153;47.986;7.898;2023-05-15T12:04:47;1.70;;;1.60;;
2289;SDS011;1153;47.986;7.898;2023-05-15T12:07:13;2.03;;;1.93;;
2289;SDS011;1153;47.986;7.898;2023-05-15T12:09:38;2.70;;;1.87;;
2289;SDS011;1153;47.986;7.898;2023-05-15T12:12:04;1.70;;;1.60;;
2289;SDS011;1153;47.986;7.898;2023-05-15T12:14:30;1.87;;;1.77;;
2289;SDS011;1153;47.986;7.898;2023-05-15T12:17:01;2.13;;;2.03;;
2289;SDS011;1153;47.986;7.898;2023-05-15T12:19:28;2.70;;;2.50;;
2289;SDS011;1153;47.986;7.898;2023-05-15T12:21:53;2.47;;;1.90;;
2289;SDS011;1153;47.986;7.898;2023-05-15T12:24:19;1.90;;;1.80;;
2289;SDS011;1153;47.986;7.898;2023-05-15T12:26:44;2.00;;;1.90;;
2289;SDS011;1153;47.986;7.898;2023-05-15T12:29:10;2.80;;;2.60;;
2289;SDS011;1153;47.986;7.898;2023-05-15T12:31:35;2.77;;;2.57;;
2289;SDS011;1153;47.986;7.898;2023-05-15T12:34:01;2.20;;;2.07;;
2289;SDS011;1153;47.986;7.898;2023-05-15T12:36:26;4.17;;;1.80;;
2289;SDS011;1153;47.986;7.898;2023-05-15T12:38:53;2.23;;;2.13;;
2289;SDS011;1153;47.986;7.898;2023-05-15T12:41:18;3.20;;;3.00;;
2289;SDS011;1153;47.986;7.898;2023-05-15T12:43:44;2.97;;;2.77;;
2289;SDS011;1153;47.986;7.898;2023-05-15T12:46:11;2.57;;;2.47;;
2289;SDS011;1153;47.986;7.898;2023-05-15T12:48:36;5.23;;;2.90;;
2289;SDS011;1153;47.986;7.898;2023-05-15T12:51:07;3.10;;;2.90;;
2289;SDS011;1153;47.986;7.898;2023-05-15T12:53:33;3.27;;;3.10;;
2289;SDS011;1153;47.986;7.898;2023-05-15T12:55:58;4.60;;;3.40;;
2289;SDS011;1153;47.986;7.898;2023-05-15T12:58:24;2.73;;;2.63;;
2289;SDS011;1153;47.986;7.898;2023-05-15T13:00:49;2.60;;;2.40;;
2289;SDS011;1153;47.986;7.898;2023-05-15T13:03:18;3.80;;;3.70;;
2289;SDS011;1153;47.986;7.898;2023-05-15T13:05:43;2.17;;;2.07;;
2289;SDS011;1153;47.986;7.898;2023-05-15T13:08:12;2.33;;;2.23;;
2289;SDS011;1153;47.986;7.898;2023-05-15T13:10:38;3.00;;;2.40;;
2289;SDS011;1153;47.986;7.898;2023-05-15T13:13:03;2.10;;;2.00;;
2289;SDS011;1153;47.986;7.898;2023-05-15T13:15:32;2.93;;;2.80;;
2289;SDS011;1153;47.986;7.898;2023-05-15T13:20:28;7.10;;;2.27;;
2289;SDS011;1153;47.986;7.898;2023-05-15T13:22:53;2.60;;;2.50;;
2289;SDS011;1153;47.986;7.898;2023-05-15T13:25:19;2.40;;;2.30;;
2289;SDS011;1153;47.986;7.898;2023-05-15T13:27:45;2.40;;;2.30;;
2289;SDS011;1153;47.986;7.898;2023-05-15T13:30:11;2.70;;;2.50;;
2289;SDS011;1153;47.986;7.898;2023-05-15T13:32:36;2.20;;;2.10;;
2289;SDS011;1153;47.986;7.898;2023-05-15T13:35:02;1.60;;;1.50;;
2289;SDS011;1153;47.986;7.898;2023-05-15T13:37:28;1.80;;;1.70;;
2289;SDS011;1153;47.986;7.898;2023-05-15T13:39:53;2.53;;;1.80;;
2289;SDS011;1153;47.986;7.898;2023-05-15T13:42:19;2.17;;;2.07;;
2289;SDS011;1153;47.986;7.898;2023-05-15T13:44:44;3.30;;;3.10;;
2289;SDS011;1153;47.986;7.898;2023-05-15T13:47:10;3.00;;;2.30;;
2289;SDS011;1153;47.986;7.898;2023-05-15T13:49:35;1.90;;;1.80;;
2289;SDS011;1153;47.986;7.898;2023-05-15T13:52:00;2.30;;;2.20;;
2289;SDS011;1153;47.986;7.898;2023-05-15T13:54:25;1.53;;;1.43;;
2289;SDS011;1153;47.986;7.898;2023-05-15T13:56:50;2.67;;;1.73;;
2289;SDS011;1153;47.986;7.898;2023-05-15T13:59:15;1.97;;;1.70;;
2289;SDS011;1153;47.986;7.898;2023-05-15T14:01:41;1.30;;;1.20;;
2289;SDS011;1153;47.986;7.898;2023-05-15T14:04:06;2.47;;;2.37;;
2289;SDS011;1153;47.986;7.898;2023-05-15T14:06:31;2.90;;;1.33;;
2289;SDS011;1153;47.986;7.898;2023-05-15T14:08:56;7.13;;;1.33;;
2289;SDS011;1153;47.986;7.898;2023-05-15T14:11:22;1.77;;;1.67;;
2289;SDS011;1153;47.986;7.898;2023-05-15T14:13:47;2.40;;;1.10;;
2289;SDS011;1153;47.986;7.898;2023-05-15T14:16:12;2.10;;;1.30;;
2289;SDS011;1153;47.986;7.898;2023-05-15T14:18:37;1.20;;;1.10;;
2289;SDS011;1153;47.986;7.898;2023-05-15T14:21:02;1.50;;;1.40;;
2289;SDS011;1153;47.986;7.898;2023-05-15T14:23:28;1.40;;;1.30;;
2289;SDS011;1153;47.986;7.898;2023-05-15T14:25:53;1.90;;;1.80;;
2289;SDS011;1153;47.986;7.898;2023-05-15T14:28:18;1.30;;;1.10;;
2289;SDS011;1153;47.986;7.898;2023-05-15T14:30:43;2.13;;;1.37;;
2289;SDS011;1153;47.986;7.898;2023-05-15T14:33:08;1.07;;;0.97;;
2289;SDS011;1153;47.986;7.898;2023-05-15T14:35:34;1.43;;;1.33;;
2289;SDS011;1153;47.986;7.898;2023-05-15T14:37:59;1.37;;;1.27;;
2289;SDS011;1153;47.986;7.898;2023-05-15T14:40:24;2.47;;;2.00;;
2289;SDS011;1153;47.986;7.898;2023-05-15T14:42:50;1.50;;;1.40;;
2289;SDS011;1153;47.986;7.898;2023-05-15T14:45:15;1.53;;;1.43;;
2289;SDS011;1153;47.986;7.898;2023-05-15T14:47:40;2.60;;;1.30;;
2289;SDS011;1153;47.986;7.898;2023-05-15T14:50:06;1.47;;;1.37;;
2289;SDS011;1153;47.986;7.898;2023-05-15T14:52:31;1.40;;;1.30;;
2289;SDS011;1153;47.986;7.898;2023-05-15T14:54:56;1.23;;;1.13;;
2289;SDS011;1153;47.986;7.898;2023-05-15T14:57:21;1.40;;;1.30;;
2289;SDS011;1153;47.986;7.898;2023-05-15T14:59:47;1.33;;;1.23;;
2289;SDS011;1153;47.986;7.898;2023-05-15T15:02:12;1.67;;;1.57;;
2289;SDS011;1153;47.986;7.898;2023-05-15T15:04:37;1.47;;;1.37;;
2289;SDS011;1153;47.986;7.898;2023-05-15T15:07:02;1.40;;;1.30;;
2289;SDS011;1153;47.986;7.898;2023-05-15T15:09:28;1.53;;;1.43;;
2289;SDS011;1153;47.986;7.898;2023-05-15T15:11:53;1.30;;;1.20;;
2289;SDS011;1153;47.986;7.898;2023-05-15T15:14:18;2.20;;;1.10;;
2289;SDS011;1153;47.986;7.898;2023-05-15T15:16:44;1.10;;;1.00;;
2289;SDS011;1153;47.986;7.898;2023-05-15T15:19:10;1.20;;;1.10;;
2289;SDS011;1153;47.986;7.898;2023-05-15T15:21:35;1.27;;;1.17;;
2289;SDS011;1153;47.986;7.898;2023-05-15T15:24:01;1.40;;;1.30;;
2289;SDS011;1153;47.986;7.898;2023-05-15T15:26:26;2.90;;;1.40;;
2289;SDS011;1153;47.986;7.898;2023-05-15T15:28:51;2.80;;;1.27;;
2289;SDS011;1153;47.986;7.898;2023-05-15T15:31:16;1.43;;;1.33;;
2289;SDS011;1153;47.986;7.898;2023-05-15T15:33:41;1.43;;;1.10;;
2289;SDS011;1153;47.986;7.898;2023-05-15T15:36:07;1.33;;;1.23;;
2289;SDS011;1153;47.986;7.898;2023-05-15T15:38:32;1.20;;;1.10;;
2289;SDS011;1153;47.986;7.898;2023-05-15T15:40:57;1.30;;;1.20;;